RYS3472 BKPR-LJLJ
Flight info
| Callsign | RYS3472 |
|---|---|
| Flight time | N/A |
| Altitude | 19000 |
| Route | SARAX1D SARAX T217 TETOV/N0455F360 DCT MAVAR DCT KOFER DCT SPL DCT DARZA |
| Aircraft | B38M/M-SDE1FGHILORVWXY/HB1 |
Departure
| Time | 2026-04-17 23:38 |
|---|---|
| Airport | Priština Adem Jashari International Airport (BKPR) |
Arrival
| Time | N/A |
|---|---|
| Airport | Ljubljana Jože Pučnik Airport (LJLJ) |
| Time | Latitude | Longitude | Altitude | Speed | Heading |
|---|---|---|---|---|---|
| 2026-04-17 22:51 | 42.57506 | 21.03113 | 1789 ft | 0 kts | 266° |
| 2026-04-17 23:08 | 42.57506 | 21.03119 | 1789 ft | 3 kts | 266° |
| 2026-04-17 23:09 | 42.57508 | 21.03155 | 1789 ft | 4 kts | 264° |
| 2026-04-17 23:09 | 42.57512 | 21.03191 | 1789 ft | 4 kts | 253° |
| 2026-04-17 23:09 | 42.57524 | 21.03218 | 1787 ft | 4 kts | 201° |
| 2026-04-17 23:09 | 42.57531 | 21.03220 | 1787 ft | 0 kts | 176° |
| 2026-04-17 23:28 | 42.57526 | 21.03220 | 1789 ft | 2 kts | 175° |
| 2026-04-17 23:31 | 42.57517 | 21.03221 | 1789 ft | 3 kts | 175° |
| 2026-04-17 23:31 | 42.57513 | 21.03222 | 1789 ft | 0 kts | 175° |
| 2026-04-17 23:32 | 42.57512 | 21.03222 | 1789 ft | 1 kts | 175° |
| 2026-04-17 23:32 | 42.57476 | 21.03226 | 1788 ft | 10 kts | 175° |
| 2026-04-17 23:33 | 42.57393 | 21.03236 | 1788 ft | 13 kts | 176° |
| 2026-04-17 23:33 | 42.57325 | 21.03294 | 1789 ft | 13 kts | 103° |
| 2026-04-17 23:33 | 42.57251 | 21.03348 | 1789 ft | 13 kts | 179° |
| 2026-04-17 23:33 | 42.57153 | 21.03358 | 1787 ft | 16 kts | 175° |
| 2026-04-17 23:34 | 42.57040 | 21.03370 | 1788 ft | 16 kts | 175° |
| 2026-04-17 23:34 | 42.56924 | 21.03382 | 1788 ft | 18 kts | 175° |
| 2026-04-17 23:34 | 42.56786 | 21.03396 | 1783 ft | 21 kts | 176° |
| 2026-04-17 23:34 | 42.56636 | 21.03411 | 1785 ft | 21 kts | 175° |
| 2026-04-17 23:35 | 42.56485 | 21.03425 | 1785 ft | 23 kts | 176° |
| 2026-04-17 23:35 | 42.56328 | 21.03441 | 1789 ft | 22 kts | 175° |
| 2026-04-17 23:35 | 42.56184 | 21.03456 | 1793 ft | 20 kts | 175° |
| 2026-04-17 23:35 | 42.56045 | 21.03471 | 1795 ft | 20 kts | 175° |
| 2026-04-17 23:36 | 42.55910 | 21.03485 | 1797 ft | 19 kts | 176° |
| 2026-04-17 23:36 | 42.55806 | 21.03551 | 1800 ft | 16 kts | 95° |
| 2026-04-17 23:36 | 42.55818 | 21.03706 | 1799 ft | 17 kts | 65° |
| 2026-04-17 23:36 | 42.55892 | 21.03730 | 1800 ft | 0 kts | 355° |
| 2026-04-17 23:37 | 42.55893 | 21.03730 | 1800 ft | 1 kts | 355° |
| 2026-04-17 23:37 | 42.55944 | 21.03725 | 1800 ft | 30 kts | 355° |
| 2026-04-17 23:37 | 42.56449 | 21.03672 | 1786 ft | 113 kts | 355° |
| 2026-04-17 23:37 | 42.57468 | 21.03563 | 1817 ft | 176 kts | 355° |
| 2026-04-17 23:38 | 42.58787 | 21.03445 | 2304 ft | 202 kts | 356° |
| 2026-04-17 23:38 | 42.60245 | 21.03332 | 3104 ft | 207 kts | 355° |
| 2026-04-17 23:38 | 42.61673 | 21.03166 | 3953 ft | 213 kts | 356° |
| 2026-04-17 23:38 | 42.63232 | 21.02909 | 4520 ft | 232 kts | 348° |
| 2026-04-17 23:39 | 42.64676 | 21.02046 | 5871 ft | 227 kts | 328° |
| 2026-04-17 23:39 | 42.65747 | 21.00440 | 6821 ft | 241 kts | 304° |
| 2026-04-17 23:39 | 42.66602 | 20.98451 | 7713 ft | 246 kts | 304° |
| 2026-04-17 23:39 | 42.67495 | 20.96449 | 8647 ft | 250 kts | 304° |
| 2026-04-17 23:40 | 42.67812 | 20.95742 | 8964 ft | 252 kts | 303° |
| 2026-04-17 23:43 | 42.68082 | 20.95141 | 9236 ft | 253 kts | 303° |
| 2026-04-17 23:43 | 42.68856 | 20.92937 | 9949 ft | 269 kts | 284° |
| 2026-04-17 23:43 | 42.68815 | 20.90344 | 10594 ft | 283 kts | 254° |
| 2026-04-17 23:43 | 42.67819 | 20.87985 | 11308 ft | 297 kts | 227° |
| 2026-04-17 23:44 | 42.66188 | 20.86291 | 12162 ft | 302 kts | 217° |
| 2026-04-17 23:44 | 42.64478 | 20.84569 | 12887 ft | 309 kts | 219° |
| 2026-04-17 23:44 | 42.62748 | 20.82801 | 13739 ft | 313 kts | 219° |
| 2026-04-17 23:44 | 42.60985 | 20.81008 | 14450 ft | 318 kts | 219° |
| 2026-04-17 23:45 | 42.57424 | 20.77397 | 15910 ft | 324 kts | 220° |
| 2026-04-17 23:45 | 42.55603 | 20.75555 | 16604 ft | 328 kts | 220° |
| 2026-04-17 23:45 | 42.53761 | 20.73693 | 17302 ft | 332 kts | 221° |
| 2026-04-17 23:46 | 42.51881 | 20.71827 | 17932 ft | 339 kts | 217° |
| 2026-04-17 23:46 | 42.50454 | 20.70846 | 18063 ft | 356 kts | 202° |
| 2026-04-17 23:46 | 42.47936 | 20.70282 | 18214 ft | 380 kts | 179° |
| 2026-04-17 23:46 | 42.45304 | 20.71051 | 18449 ft | 396 kts | 158° |
| 2026-04-17 23:47 | 42.42718 | 20.72509 | 18693 ft | 409 kts | 159° |
| 2026-04-17 23:47 | 42.40033 | 20.73923 | 18980 ft | 416 kts | 159° |
| 2026-04-17 23:47 | 42.36383 | 20.75819 | 19024 ft | 434 kts | 159° |
| 2026-04-17 23:47 | 42.34452 | 20.76819 | 19025 ft | 441 kts | 159° |
| 2026-04-17 23:48 | 42.31567 | 20.78309 | 19035 ft | 447 kts | 159° |
| 2026-04-17 23:48 | 42.28684 | 20.79797 | 19424 ft | 448 kts | 159° |
| 2026-04-17 23:48 | 42.25737 | 20.81315 | 20048 ft | 449 kts | 159° |
| 2026-04-17 23:48 | 42.22841 | 20.82806 | 20571 ft | 451 kts | 159° |
| 2026-04-17 23:49 | 42.19888 | 20.84324 | 21052 ft | 455 kts | 159° |
| 2026-04-17 23:49 | 42.16916 | 20.85852 | 21524 ft | 459 kts | 159° |
| 2026-04-17 23:49 | 42.13917 | 20.87391 | 22051 ft | 461 kts | 159° |
| 2026-04-17 23:49 | 42.10907 | 20.88938 | 22551 ft | 464 kts | 159° |
| 2026-04-17 23:50 | 42.08020 | 20.90923 | 22982 ft | 466 kts | 149° |
| 2026-04-17 23:50 | 42.05084 | 20.92758 | 23483 ft | 468 kts | 163° |
| 2026-04-17 23:50 | 42.01884 | 20.93570 | 23865 ft | 468 kts | 179° |
| 2026-04-17 23:50 | 41.98648 | 20.93282 | 24272 ft | 465 kts | 194° |
| 2026-04-17 23:51 | 41.95618 | 20.92010 | 24668 ft | 462 kts | 207° |
| 2026-04-17 23:51 | 41.92771 | 20.90028 | 25054 ft | 459 kts | 218° |
| 2026-04-17 23:51 | 41.90356 | 20.87291 | 25529 ft | 453 kts | 228° |
| 2026-04-17 23:51 | 41.88128 | 20.84289 | 25914 ft | 454 kts | 230° |
| 2026-04-17 23:52 | 41.85961 | 20.81207 | 26369 ft | 454 kts | 231° |
| 2026-04-17 23:52 | 41.83823 | 20.78081 | 26812 ft | 454 kts | 231° |
| 2026-04-17 23:52 | 41.81704 | 20.74944 | 27231 ft | 454 kts | 231° |
| 2026-04-17 23:52 | 41.79592 | 20.71795 | 27690 ft | 454 kts | 232° |
| 2026-04-17 23:53 | 41.77481 | 20.68638 | 28134 ft | 455 kts | 232° |
| 2026-04-17 23:53 | 41.75366 | 20.65477 | 28557 ft | 455 kts | 232° |
| 2026-04-17 23:53 | 41.73250 | 20.62316 | 28954 ft | 456 kts | 232° |
| 2026-04-17 23:53 | 41.71135 | 20.59135 | 29352 ft | 456 kts | 234° |
| 2026-04-17 23:54 | 41.69457 | 20.55603 | 29794 ft | 447 kts | 250° |
| 2026-04-17 23:54 | 41.68535 | 20.51670 | 30242 ft | 440 kts | 262° |
| 2026-04-17 23:54 | 41.68334 | 20.47669 | 30574 ft | 435 kts | 276° |
| 2026-04-17 23:54 | 41.68652 | 20.43643 | 30915 ft | 434 kts | 279° |
| 2026-04-17 23:55 | 41.69086 | 20.39642 | 31244 ft | 434 kts | 281° |
| 2026-04-17 23:55 | 41.69593 | 20.35652 | 31623 ft | 433 kts | 282° |
| 2026-04-17 23:55 | 41.70130 | 20.31687 | 31984 ft | 433 kts | 282° |
| 2026-04-17 23:55 | 41.70684 | 20.27717 | 32340 ft | 432 kts | 282° |
| 2026-04-17 23:56 | 41.71246 | 20.23761 | 32689 ft | 432 kts | 282° |
| 2026-04-17 23:56 | 41.71803 | 20.19867 | 33045 ft | 431 kts | 282° |
| 2026-04-17 23:56 | 41.72366 | 20.15927 | 33390 ft | 431 kts | 282° |
| 2026-04-17 23:56 | 41.72930 | 20.11990 | 33763 ft | 429 kts | 282° |
| 2026-04-17 23:57 | 41.73487 | 20.08072 | 34115 ft | 428 kts | 282° |
| 2026-04-17 23:57 | 41.74045 | 20.04149 | 34401 ft | 428 kts | 282° |
| 2026-04-17 23:57 | 41.74600 | 20.00233 | 34672 ft | 429 kts | 282° |
| 2026-04-17 23:57 | 41.75156 | 19.96304 | 34925 ft | 429 kts | 282° |
| 2026-04-17 23:58 | 41.75710 | 19.92373 | 35169 ft | 429 kts | 282° |
| 2026-04-17 23:58 | 41.76264 | 19.88437 | 35433 ft | 429 kts | 282° |
| 2026-04-17 23:58 | 41.76815 | 19.84506 | 35680 ft | 429 kts | 282° |
| 2026-04-17 23:58 | 41.77359 | 19.80621 | 35905 ft | 429 kts | 282° |
| 2026-04-17 23:59 | 41.77911 | 19.76667 | 35939 ft | 431 kts | 282° |
| 2026-04-17 23:59 | 41.79007 | 19.68781 | 35930 ft | 430 kts | 282° |
| 2026-04-18 00:00 | 41.80097 | 19.60900 | 35916 ft | 429 kts | 282° |
| 2026-04-18 00:00 | 41.81181 | 19.53014 | 35924 ft | 429 kts | 282° |
| 2026-04-18 00:01 | 41.82253 | 19.45183 | 35915 ft | 429 kts | 282° |
| 2026-04-18 00:01 | 41.83326 | 19.37296 | 35928 ft | 430 kts | 282° |
| 2026-04-18 00:02 | 41.84389 | 19.29449 | 35928 ft | 430 kts | 282° |
| 2026-04-18 00:02 | 41.85451 | 19.21556 | 35936 ft | 430 kts | 282° |
| 2026-04-18 00:03 | 41.86508 | 19.13662 | 35936 ft | 430 kts | 282° |
| 2026-04-18 00:03 | 41.87562 | 19.05755 | 35943 ft | 430 kts | 282° |
| 2026-04-18 00:04 | 41.88609 | 18.97844 | 35940 ft | 430 kts | 282° |
| 2026-04-18 00:04 | 41.89651 | 18.89935 | 35944 ft | 430 kts | 282° |
| 2026-04-18 00:05 | 41.90690 | 18.82017 | 35953 ft | 431 kts | 282° |
| 2026-04-18 00:05 | 41.91718 | 18.74138 | 35944 ft | 430 kts | 282° |
| 2026-04-18 00:06 | 41.93337 | 18.66483 | 35927 ft | 423 kts | 303° |
| 2026-04-18 00:06 | 41.97027 | 18.60348 | 35929 ft | 424 kts | 312° |
| 2026-04-18 00:07 | 42.00971 | 18.54469 | 35956 ft | 424 kts | 313° |
| 2026-04-18 00:07 | 42.04966 | 18.48636 | 35952 ft | 423 kts | 313° |
| 2026-04-18 00:08 | 42.08970 | 18.42810 | 35948 ft | 424 kts | 313° |
| 2026-04-18 00:08 | 42.12950 | 18.37013 | 35952 ft | 424 kts | 314° |
| 2026-04-18 00:09 | 42.16951 | 18.31172 | 35950 ft | 422 kts | 314° |
| 2026-04-18 00:09 | 42.20926 | 18.25358 | 35949 ft | 422 kts | 314° |
| 2026-04-18 00:10 | 42.24902 | 18.19531 | 35953 ft | 422 kts | 314° |
| 2026-04-18 00:10 | 42.28858 | 18.13722 | 35957 ft | 422 kts | 314° |
| 2026-04-18 00:11 | 42.32829 | 18.07877 | 35959 ft | 422 kts | 313° |
| 2026-04-18 00:11 | 42.36796 | 18.02029 | 35963 ft | 422 kts | 313° |
| 2026-04-18 00:12 | 42.40767 | 17.96163 | 35975 ft | 422 kts | 313° |
| 2026-04-18 00:12 | 42.44725 | 17.90303 | 35963 ft | 421 kts | 313° |
| 2026-04-18 00:13 | 42.48653 | 17.84477 | 35969 ft | 421 kts | 313° |
| 2026-04-18 00:13 | 42.52605 | 17.78601 | 35971 ft | 421 kts | 313° |
| 2026-04-18 00:14 | 42.56557 | 17.72716 | 35972 ft | 421 kts | 314° |
| 2026-04-18 00:14 | 42.60509 | 17.66818 | 35981 ft | 422 kts | 314° |
| 2026-04-18 00:15 | 42.64431 | 17.60953 | 35987 ft | 422 kts | 314° |
| 2026-04-18 00:15 | 42.68369 | 17.55051 | 35997 ft | 421 kts | 314° |
| 2026-04-18 00:16 | 42.72295 | 17.49157 | 36000 ft | 420 kts | 314° |
| 2026-04-18 00:16 | 42.76224 | 17.43247 | 36004 ft | 421 kts | 313° |
| 2026-04-18 00:17 | 42.80149 | 17.37328 | 35991 ft | 421 kts | 313° |
| 2026-04-18 00:17 | 42.84051 | 17.31434 | 36014 ft | 421 kts | 313° |
| 2026-04-18 00:18 | 42.87982 | 17.25482 | 36014 ft | 421 kts | 313° |
| 2026-04-18 00:18 | 42.91908 | 17.19526 | 36029 ft | 421 kts | 314° |
| 2026-04-18 00:19 | 42.95803 | 17.13607 | 36029 ft | 421 kts | 314° |
| 2026-04-18 00:19 | 42.99717 | 17.07646 | 36017 ft | 421 kts | 314° |
| 2026-04-18 00:20 | 43.01556 | 17.04839 | 36020 ft | 421 kts | 313° |
| 2026-04-18 00:21 | 43.02667 | 17.03143 | 36022 ft | 421 kts | 313° |
| 2026-04-18 00:22 | 43.03669 | 17.01611 | 36024 ft | 421 kts | 313° |
| 2026-04-18 00:22 | 43.07556 | 16.95667 | 36029 ft | 422 kts | 313° |
| 2026-04-18 00:23 | 43.11469 | 16.89671 | 36030 ft | 422 kts | 313° |
| 2026-04-18 00:23 | 43.15376 | 16.83670 | 36048 ft | 422 kts | 313° |